Time;durP1;ratioP1;P1;durP2;ratioP2;P2;SDS_P1;SDS_P2;PMS_P1;PMS_P2;Temp;Humidity;BMP_temperature;BMP_pressure;BME280_temperature;BME280_humidity;BME280_pressure;Samples;Min_cycle;Max_cycle;Signal;HPM_P1;HPM_P2
2022/09/30 00:00:21;;;;;;;16.30;10.37;;;;;;;3.51;100.00;100693.09;4893848;29;20028;-85
2022/09/30 00:02:46;;;;;;;20.30;11.05;;;;;;;3.52;100.00;100692.91;4894981;29;20040;-84
2022/09/30 00:05:13;;;;;;;15.30;11.10;;;;;;;3.47;100.00;100687.41;4895172;29;20024;-84
2022/09/30 00:07:38;;;;;;;18.08;10.70;;;;;;;3.39;100.00;100687.66;4893429;29;20028;-84
2022/09/30 00:10:05;;;;;;;14.27;10.47;;;;;;;3.41;100.00;100699.69;4892021;29;20374;-84
2022/09/30 00:12:31;;;;;;;21.00;11.27;;;;;;;3.39;100.00;100701.72;4893479;29;20025;-84
2022/09/30 00:14:56;;;;;;;18.75;12.43;;;;;;;3.36;100.00;100701.34;4894524;29;20032;-85
2022/09/30 00:17:21;;;;;;;17.40;11.67;;;;;;;3.32;100.00;100708.88;4893446;29;20033;-85
2022/09/30 00:19:47;;;;;;;19.77;12.30;;;;;;;3.26;100.00;100710.56;4894332;29;20028;-85
2022/09/30 00:22:13;;;;;;;17.70;11.90;;;;;;;3.23;100.00;100716.25;4895359;29;20029;-85
2022/09/30 00:24:39;;;;;;;18.00;11.73;;;;;;;3.21;100.00;100701.63;4895165;29;20147;-85
2022/09/30 00:27:04;;;;;;;16.75;12.02;;;;;;;3.28;100.00;100713.00;4896099;29;20097;-84
2022/09/30 00:29:30;;;;;;;17.77;11.80;;;;;;;3.25;100.00;100702.84;4895457;29;20032;-84
2022/09/30 00:31:55;;;;;;;18.37;12.60;;;;;;;3.33;100.00;100714.00;4892964;29;20029;-84
2022/09/30 00:34:20;;;;;;;19.27;12.57;;;;;;;3.25;100.00;100694.88;4894291;29;20025;-84
2022/09/30 00:36:49;;;;;;;18.33;12.40;;;;;;;3.28;100.00;100713.00;4892948;29;20421;-84
2022/09/30 00:39:19;;;;;;;19.17;12.15;;;;;;;3.19;100.00;100709.78;4893780;29;20426;-84
2022/09/30 00:41:46;;;;;;;17.65;11.55;;;;;;;3.20;100.00;100714.03;4876448;29;20024;-84
2022/09/30 00:44:43;;;;;;;17.08;12.13;;;;;;;3.14;100.00;100710.41;4894131;29;20397;-84
2022/09/30 00:47:47;;;;;;;20.40;11.68;;;;;;;3.10;100.00;100709.22;4888885;29;20178;-84
2022/09/30 00:50:21;;;;;;;16.88;11.15;;;;;;;3.00;100.00;100695.59;4887582;29;20052;-84
2022/09/30 00:52:57;;;;;;;15.93;11.23;;;;;;;3.01;100.00;100703.31;4892478;29;20040;-84
2022/09/30 00:55:30;;;;;;;19.23;11.45;;;;;;;2.94;100.00;100693.78;4894095;29;20100;-84
2022/09/30 00:57:57;;;;;;;15.40;10.77;;;;;;;2.95;100.00;100708.66;4892826;29;20040;-84
2022/09/30 01:00:23;;;;;;;18.97;11.23;;;;;;;2.94;100.00;100707.03;4892449;29;20313;-84
2022/09/30 01:02:49;;;;;;;15.93;10.95;;;;;;;2.88;100.00;100701.56;4893501;29;20136;-84
2022/09/30 01:05:14;;;;;;;19.33;11.63;;;;;;;2.98;100.00;100714.34;4893190;29;20039;-84
2022/09/30 01:07:40;;;;;;;18.48;11.15;;;;;;;2.93;100.00;100710.69;4893140;29;20444;-84
2022/09/30 01:10:06;;;;;;;17.67;10.87;;;;;;;2.93;100.00;100713.34;4893307;29;20044;-84
2022/09/30 01:12:31;;;;;;;17.92;10.32;;;;;;;2.86;100.00;100706.25;4893435;29;20043;-84
2022/09/30 01:14:59;;;;;;;18.33;10.33;;;;;;;2.84;100.00;100705.66;4886492;29;20032;-84
2022/09/30 01:17:45;;;;;;;17.10;10.98;;;;;;;2.81;100.00;100716.66;4892268;29;20025;-84
2022/09/30 01:20:53;;;;;;;16.17;10.50;;;;;;;2.72;100.00;100699.38;4893212;29;20549;-84
2022/09/30 01:23:36;;;;;;;14.70;10.30;;;;;;;2.75;100.00;100711.38;4885358;29;20036;-84
2022/09/30 01:26:28;;;;;;;15.15;10.30;;;;;;;2.68;100.00;100711.41;4897489;29;20044;-84
2022/09/30 01:29:02;;;;;;;25.15;10.50;;;;;;;2.75;100.00;100711.38;4897154;29;20032;-84
2022/09/30 01:32:00;;;;;;;14.65;10.30;;;;;;;2.72;100.00;100702.84;4896213;29;20183;-84
2022/09/30 01:34:48;;;;;;;18.20;10.33;;;;;;;2.78;100.00;100714.41;4892288;29;20405;-84
2022/09/30 01:37:24;;;;;;;17.63;10.23;;;;;;;2.74;100.00;100713.19;4896239;29;20808;-84
2022/09/30 01:40:21;;;;;;;18.63;9.63;;;;;;;2.74;100.00;100707.91;4894971;29;20104;-84
2022/09/30 01:42:52;;;;;;;15.63;9.95;;;;;;;2.73;100.00;100706.31;4895321;29;20100;-84
2022/09/30 01:45:21;;;;;;;16.75;10.90;;;;;;;2.66;100.00;100700.22;4895420;29;20032;-84
2022/09/30 01:48:03;;;;;;;17.20;10.80;;;;;;;2.62;100.00;100694.53;4894880;29;20068;-84
2022/09/30 01:50:35;;;;;;;14.90;9.38;;;;;;;2.63;100.00;100711.19;4893673;29;20040;-84
2022/09/30 01:53:09;;;;;;;15.30;9.90;;;;;;;2.61;100.00;100713.25;4895672;29;20097;-83
2022/09/30 01:55:57;;;;;;;16.55;10.32;;;;;;;2.54;100.00;100711.44;4893929;29;20544;-84
2022/09/30 01:58:38;;;;;;;16.65;10.35;;;;;;;2.55;100.00;100712.25;4889078;29;20093;-85
2022/09/30 02:01:10;;;;;;;14.67;9.97;;;;;;;2.53;100.00;100722.22;4891358;29;20059;-85
2022/09/30 02:03:52;;;;;;;18.43;10.53;;;;;;;2.49;100.00;100718.34;4892838;29;20313;-84
2022/09/30 02:06:22;;;;;;;16.17;10.68;;;;;;;2.42;100.00;100719.19;4894501;29;20028;-84
2022/09/30 02:08:56;;;;;;;20.20;11.10;;;;;;;2.41;100.00;100716.72;4895353;29;20048;-83
2022/09/30 02:11:25;;;;;;;17.80;11.02;;;;;;;2.40;100.00;100715.09;4873430;29;20071;-84
2022/09/30 02:14:08;;;;;;;19.08;11.48;;;;;;;2.39;100.00;100713.47;4890683;29;20044;-85
2022/09/30 02:16:39;;;;;;;18.55;11.48;;;;;;;2.29;100.00;100695.38;4893921;29;20516;-84
2022/09/30 02:19:27;;;;;;;18.13;11.82;;;;;;;2.38;100.00;100722.44;4889191;29;20029;-84
2022/09/30 02:21:58;;;;;;;23.08;11.98;;;;;;;2.37;100.00;100721.63;4894207;29;20041;-84
2022/09/30 02:24:28;;;;;;;21.13;12.27;;;;;;;2.34;100.00;100719.41;4895021;29;20066;-84
2022/09/30 02:26:57;;;;;;;20.23;11.67;;;;;;;2.26;100.00;100715.13;4895314;29;20503;-84
2022/09/30 02:29:28;;;;;;;16.47;10.77;;;;;;;2.31;100.00;100719.81;4893831;29;20802;-84
2022/09/30 02:31:58;;;;;;;16.88;10.63;;;;;;;2.26;100.00;100727.56;4892169;29;20581;-84
2022/09/30 02:34:31;;;;;;;15.27;10.45;;;;;;;2.15;100.00;100715.75;4894559;29;20140;-84
2022/09/30 02:37:18;;;;;;;21.48;10.98;;;;;;;2.18;100.00;100720.66;4877288;29;20201;-85
2022/09/30 02:40:08;;;;;;;16.77;11.07;;;;;;;2.17;100.00;100719.03;4822342;29;2067707;-85
2022/09/30 02:42:33;;;;;;;15.85;10.65;;;;;;;2.09;100.00;100712.09;4884094;29;20413;-85
2022/09/30 02:45:07;;;;;;;17.20;10.32;;;;;;;2.03;100.00;100712.91;4895828;29;20032;-85
2022/09/30 02:47:57;;;;;;;16.17;10.40;;;;;;;2.07;100.00;100711.50;4896445;29;20033;-84
2022/09/30 02:50:31;;;;;;;17.13;10.47;;;;;;;2.07;100.00;100702.75;4883649;29;20414;-85
2022/09/30 02:53:20;;;;;;;19.05;10.57;;;;;;;2.17;100.00;100721.66;4896878;29;20058;-85
2022/09/30 02:56:02;;;;;;;16.88;10.02;;;;;;;2.19;100.00;100718.81;4886997;29;20053;-84
2022/09/30 02:58:29;;;;;;;16.50;10.85;;;;;;;2.21;100.00;100730.00;4886506;29;20060;-85
2022/09/30 03:00:56;;;;;;;24.55;11.93;;;;;;;2.21;100.00;100717.56;4894296;29;20089;-87
2022/09/30 03:03:43;;;;;;;17.40;11.32;;;;;;;2.17;100.00;100716.38;4895411;29;20500;-84
2022/09/30 03:06:10;;;;;;;19.92;11.35;;;;;;;2.15;100.00;100721.06;4891406;29;20036;-84
2022/09/30 03:08:35;;;;;;;21.52;12.27;;;;;;;2.06;100.00;100711.69;4894841;29;20021;-84
2022/09/30 03:11:02;;;;;;;16.77;11.63;;;;;;;2.11;100.00;100717.97;4894661;29;20041;-84
2022/09/30 03:13:51;;;;;;;21.65;12.45;;;;;;;2.10;100.00;100720.84;4889075;29;20109;-86
2022/09/30 03:16:43;;;;;;;17.75;11.45;;;;;;;2.04;100.00;100717.19;4893393;29;20037;-85
2022/09/30 03:19:30;;;;;;;21.35;11.55;;;;;;;2.06;100.00;100731.03;4894474;29;20146;-84
2022/09/30 03:22:41;;;;;;;19.48;11.50;;;;;;;2.03;100.00;100726.13;4894227;29;20047;-84
2022/09/30 03:25:31;;;;;;;21.02;11.25;;;;;;;2.03;100.00;100730.59;4885300;29;20115;-83
2022/09/30 03:28:08;;;;;;;19.87;12.33;;;;;;;2.03;100.00;100728.78;4890111;29;20477;-84
2022/09/30 03:30:43;;;;;;;19.47;12.10;;;;;;;1.95;100.00;100724.50;4892942;29;20375;-83
2022/09/30 03:33:48;;;;;;;19.90;11.98;;;;;;;1.95;100.00;100739.53;4896096;29;20109;-83
2022/09/30 03:36:37;;;;;;;20.50;11.80;;;;;;;1.91;100.00;100741.78;4866067;29;20403;-84
2022/09/30 03:39:36;;;;;;;20.48;11.85;;;;;;;1.92;100.00;100737.28;4892277;29;20044;-83
2022/09/30 03:42:13;;;;;;;23.45;13.75;;;;;;;1.91;100.00;100727.75;4886015;29;20037;-83
2022/09/30 03:44:47;;;;;;;19.40;12.35;;;;;;;2.04;100.00;100735.69;4892494;29;20036;-83
2022/09/30 03:47:16;;;;;;;25.88;15.35;;;;;;;2.03;100.00;100710.28;4892624;29;20036;-83
2022/09/30 03:49:47;;;;;;;28.02;15.43;;;;;;;2.16;100.00;100721.84;4892564;29;20036;-84
2022/09/30 03:52:13;;;;;;;23.05;14.93;;;;;;;2.16;100.00;100735.06;4890587;29;20503;-87
2022/09/30 03:54:48;;;;;;;26.50;14.30;;;;;;;2.13;100.00;100741.59;4891706;29;20477;-86
2022/09/30 03:57:14;;;;;;;22.43;13.93;;;;;;;2.06;100.00;100740.75;4891012;29;20312;-89
2022/09/30 03:59:39;;;;;;;22.55;14.90;;;;;;;2.06;100.00;100749.53;4895031;29;20103;-88
2022/09/30 04:02:05;;;;;;;24.63;14.77;;;;;;;1.96;100.00;100747.28;4891565;29;20096;-87
2022/09/30 04:04:31;;;;;;;21.95;13.65;;;;;;;1.91;100.00;100746.25;4894798;29;20036;-87
2022/09/30 04:06:56;;;;;;;25.37;14.63;;;;;;;1.92;100.00;100758.44;4895347;29;20093;-88
2022/09/30 04:09:21;;;;;;;24.47;14.17;;;;;;;1.86;100.00;100756.63;4894528;29;20044;-87
2022/09/30 04:11:47;;;;;;;25.50;14.30;;;;;;;1.82;100.00;100750.94;4889654;29;20031;-86
2022/09/30 04:14:12;;;;;;;26.17;14.63;;;;;;;1.85;100.00;100760.28;4894988;29;20033;-86
2022/09/30 04:16:37;;;;;;;23.07;14.23;;;;;;;1.84;100.00;100764.72;4885699;29;20026;-86
2022/09/30 04:19:03;;;;;;;25.60;14.25;;;;;;;1.77;100.00;100775.28;4882740;29;20024;-86
2022/09/30 04:21:28;;;;;;;21.47;13.47;;;;;;;1.63;100.00;100779.75;4893957;29;20038;-86
2022/09/30 04:23:54;;;;;;;23.30;14.67;;;;;;;1.67;100.00;100780.97;4895522;29;20480;-87
2022/09/30 04:26:20;;;;;;;25.15;14.95;;;;;;;1.72;100.00;100798.03;4892981;29;20113;-86
2022/09/30 04:28:46;;;;;;;25.23;15.32;;;;;;;1.62;100.00;100788.69;4894594;29;20103;-86
2022/09/30 04:31:13;;;;;;;22.33;14.03;;;;;;;1.65;100.00;100798.84;4894112;29;20033;-87
2022/09/30 04:33:39;;;;;;;22.80;14.50;;;;;;;1.64;100.00;100794.56;4891781;29;20032;-87
2022/09/30 04:36:05;;;;;;;23.67;15.27;;;;;;;1.79;100.00;100809.47;4892172;29;20028;-87
2022/09/30 04:38:31;;;;;;;23.80;13.73;;;;;;;1.68;100.00;100800.28;4893226;29;20033;-87
2022/09/30 04:40:56;;;;;;;26.10;14.57;;;;;;;1.71;100.00;100804.34;4892833;29;20284;-87
2022/09/30 04:43:23;;;;;;;27.25;14.57;;;;;;;1.76;100.00;100801.94;4895111;29;20517;-87
2022/09/30 04:45:51;;;;;;;25.13;15.30;;;;;;;1.84;100.00;100803.56;4873440;29;20028;-87
2022/09/30 04:48:17;;;;;;;26.30;15.88;;;;;;;1.89;100.00;100799.31;4872481;29;20035;-88
2022/09/30 04:50:43;;;;;;;27.77;16.27;;;;;;;1.85;100.00;100798.06;4874645;29;20033;-87
2022/09/30 04:53:11;;;;;;;25.95;15.80;;;;;;;1.81;100.00;100799.50;4858801;29;20104;-87
2022/09/30 04:55:37;;;;;;;29.67;15.73;;;;;;;1.78;100.00;100819.19;4884862;29;20039;-87
2022/09/30 04:58:03;;;;;;;23.17;14.50;;;;;;;1.69;100.00;100820.41;4892118;29;20748;-87
2022/09/30 05:00:28;;;;;;;26.27;15.35;;;;;;;1.55;100.00;100813.47;4898913;29;20072;-87
2022/09/30 05:02:54;;;;;;;24.73;15.30;;;;;;;1.64;100.00;100826.25;4900622;29;20041;-87
2022/09/30 05:05:19;;;;;;;25.47;14.87;;;;;;;1.55;100.00;100824.03;4896148;29;20124;-87
2022/09/30 05:07:44;;;;;;;26.67;16.10;;;;;;;1.60;100.00;100821.56;4906357;29;20028;-87
2022/09/30 05:10:10;;;;;;;28.33;15.53;;;;;;;1.60;100.00;100819.75;4898998;29;20028;-88
2022/09/30 05:12:37;;;;;;;26.08;15.73;;;;;;;1.65;100.00;100830.53;4899064;29;20033;-86
2022/09/30 05:15:06;;;;;;;24.17;14.10;;;;;;;1.64;100.00;100834.19;4898900;29;20040;-87
2022/09/30 05:17:31;;;;;;;25.27;15.43;;;;;;;1.63;100.00;100829.09;4896455;29;20811;-87
2022/09/30 05:19:57;;;;;;;27.20;15.93;;;;;;;1.63;100.00;100829.09;4890176;29;20032;-88
2022/09/30 05:22:24;;;;;;;28.23;16.13;;;;;;;1.69;100.00;100830.97;4898862;29;20085;-85
2022/09/30 05:24:55;;;;;;;26.53;15.30;;;;;;;1.64;100.00;100828.91;4900869;29;20296;-87
2022/09/30 05:27:20;;;;;;;29.85;15.65;;;;;;;1.64;100.00;100834.19;4883706;29;20043;-87
2022/09/30 05:29:46;;;;;;;26.35;15.80;;;;;;;1.58;100.00;100837.63;4903694;29;20044;-90
2022/09/30 05:32:18;;;;;;;26.67;14.90;;;;;;;1.50;100.00;100835.97;4905663;29;20036;-92
2022/09/30 05:34:44;;;;;;;24.58;14.82;;;;;;;1.54;100.00;100846.16;4923531;29;20043;-89
2022/09/30 05:37:09;;;;;;;25.10;15.27;;;;;;;1.38;100.00;100816.41;4911762;29;20029;-90
2022/09/30 05:39:35;;;;;;;26.37;15.63;;;;;;;1.57;100.00;100838.66;4917933;29;20044;-89
2022/09/30 05:42:00;;;;;;;28.33;15.85;;;;;;;1.54;100.00;100844.31;4892288;29;20037;-89
2022/09/30 05:44:26;;;;;;;26.60;15.87;;;;;;;1.56;100.00;100850.22;4884204;29;20553;-90
2022/09/30 05:46:51;;;;;;;27.70;15.55;;;;;;;1.60;100.00;100863.84;4899554;29;20038;-91
2022/09/30 05:49:16;;;;;;;31.57;15.50;;;;;;;1.64;100.00;100873.81;4899744;29;20035;-93
2022/09/30 05:51:42;;;;;;;30.23;15.80;;;;;;;1.58;100.00;100848.19;4899477;29;20111;-91
2022/09/30 05:54:09;;;;;;;27.67;15.60;;;;;;;1.54;100.00;100860.16;4905118;29;20576;-92
2022/09/30 05:56:37;;;;;;;27.05;15.98;;;;;;;1.62;100.00;100872.38;4912110;29;20178;-92
2022/09/30 05:59:03;;;;;;;27.92;15.65;;;;;;;1.55;100.00;100867.09;4884214;29;20508;-91
2022/09/30 06:01:28;;;;;;;25.92;15.77;;;;;;;1.70;100.00;100890.72;4897369;29;20037;-91
2022/09/30 06:03:53;;;;;;;29.63;16.07;;;;;;;1.74;100.00;100888.50;4899659;29;20028;-91
2022/09/30 06:06:20;;;;;;;29.13;15.87;;;;;;;1.69;100.00;100878.53;4896118;29;20454;-91
2022/09/30 06:08:45;;;;;;;29.02;17.15;;;;;;;1.68;100.00;100858.41;4907046;29;20040;-90
2022/09/30 06:11:14;;;;;;;29.02;15.75;;;;;;;1.73;100.00;100876.28;4907185;29;20032;-91
2022/09/30 06:13:42;;;;;;;31.40;17.00;;;;;;;1.86;100.00;100886.91;4905519;29;20036;-91
2022/09/30 06:16:08;;;;;;;29.07;16.30;;;;;;;1.95;100.00;100898.13;4906998;29;20036;-91
2022/09/30 06:18:34;;;;;;;29.47;16.20;;;;;;;1.87;100.00;100885.91;4901922;29;20776;-90
2022/09/30 06:21:01;;;;;;;25.65;15.75;;;;;;;1.98;100.00;100902.22;4902468;29;20047;-89
2022/09/30 06:23:28;;;;;;;30.77;17.60;;;;;;;2.01;100.00;100889.41;4903708;29;20033;-90
2022/09/30 06:25:54;;;;;;;36.13;17.48;;;;;;;2.11;100.00;100899.59;4915968;29;20062;-90
2022/09/30 06:28:19;;;;;;;28.80;15.73;;;;;;;2.20;100.00;100910.81;4904526;29;20064;-88
2022/09/30 06:30:46;;;;;;;32.03;17.73;;;;;;;2.26;100.00;100908.16;4898308;29;20320;-94
2022/09/30 06:33:12;;;;;;;34.22;18.65;;;;;;;2.37;100.00;100908.63;4899532;29;20031;-94
2022/09/30 06:35:40;;;;;;;30.30;18.08;;;;;;;2.37;100.00;100917.34;4898766;29;20029;-94
2022/09/30 06:38:06;;;;;;;31.98;18.65;;;;;;;2.41;100.00;100909.81;4872125;29;20029;-94
2022/09/30 06:40:31;;;;;;;38.60;19.30;;;;;;;2.54;100.00;100917.78;4866420;29;20021;-94
2022/09/30 06:42:58;;;;;;;34.97;18.07;;;;;;;2.55;100.00;100906.19;4898125;29;20080;-96
2022/09/30 06:45:34;;;;;;;32.85;18.83;;;;;;;2.56;100.00;100905.16;4901531;29;20029;-96
2022/09/30 06:48:19;;;;;;;35.92;19.27;;;;;;;2.53;100.00;100886.22;4898661;29;20024;-93
2022/09/30 06:50:45;;;;;;;36.53;20.20;;;;;;;2.82;100.00;100910.69;4878867;29;20039;-92
2022/09/30 06:53:11;;;;;;;42.30;21.05;;;;;;;2.98;100.00;100902.31;4896803;29;20040;-92
2022/09/30 06:55:39;;;;;;;43.08;23.27;;;;;;;3.24;100.00;100915.72;4898045;29;20032;-91
2022/09/30 06:58:10;;;;;;;44.95;23.50;;;;;;;3.33;100.00;100909.16;4893927;29;20029;-91
2022/09/30 07:00:36;;;;;;;50.33;25.88;;;;;;;3.38;100.00;100895.34;4895897;29;20032;-92
2022/09/30 07:03:04;;;;;;;52.53;25.67;;;;;;;3.39;100.00;100876.56;4884872;29;20517;-92
2022/09/30 07:05:55;;;;;;;57.07;28.10;;;;;;;3.60;100.00;100885.25;4915777;29;20375;-90
2022/09/30 07:08:20;;;;;;;68.05;31.65;;;;;;;4.04;100.00;100918.09;4875133;29;20131;-90
2022/09/30 07:10:46;;;;;;;76.57;34.27;;;;;;;4.26;100.00;100912.47;4906786;29;20069;-92
2022/09/30 07:13:13;;;;;;;84.85;37.63;;;;;;;4.45;100.00;100917.88;4912039;29;20453;-92
2022/09/30 07:15:40;;;;;;;92.13;40.38;;;;;;;4.64;100.00;100916.13;4910566;29;20108;-92
2022/09/30 07:18:07;;;;;;;93.82;40.47;;;;;;;4.61;100.00;100888.13;4903630;29;20024;-93
2022/09/30 07:20:33;;;;;;;91.90;38.50;;;;;;;4.80;100.00;100912.09;4907340;29;20052;-92
2022/09/30 07:22:58;;;;;;;78.00;37.67;;;;;;;4.70;100.00;100881.53;4887659;29;20068;-90
2022/09/30 07:25:24;;;;;;;89.35;40.70;;;;;;;4.95;100.00;100912.56;4899034;29;20044;-91
2022/09/30 07:27:49;;;;;;;99.27;42.43;;;;;;;5.03;100.00;100905.38;4906142;29;20040;-90
2022/09/30 07:30:15;;;;;;;85.82;38.63;;;;;;;5.08;100.00;100930.25;4918751;29;20035;-90
2022/09/30 07:32:40;;;;;;;85.83;38.13;;;;;;;5.10;100.00;100916.75;4897438;29;20370;-90
2022/09/30 07:35:06;;;;;;;99.50;41.43;;;;;;;5.23;100.00;100921.94;4896409;29;20032;-90
2022/09/30 07:37:34;;;;;;;95.00;39.80;;;;;;;5.33;100.00;100934.72;4895871;29;20237;-91
2022/09/30 07:40:01;;;;;;;99.40;41.15;;;;;;;5.24;100.00;100901.47;4895695;29;20542;-91
2022/09/30 07:42:26;;;;;;;99.78;41.90;;;;;;;5.53;100.00;100933.69;4896566;29;20160;-90
2022/09/30 07:44:52;;;;;;;93.97;39.93;;;;;;;5.57;100.00;100929.53;4897822;29;20115;-90
2022/09/30 07:47:19;;;;;;;91.83;40.63;;;;;;;5.67;100.00;100926.34;4897386;29;20374;-90
2022/09/30 07:49:44;;;;;;;89.40;40.40;;;;;;;5.62;100.00;100927.03;4896155;29;20025;-91
2022/09/30 07:52:11;;;;;;;109.37;46.60;;;;;;;5.74;100.00;100911.16;4896773;29;20085;-91
2022/09/30 07:54:37;;;;;;;105.70;45.28;;;;;;;5.97;100.00;100926.41;4896829;29;20085;-91
2022/09/30 07:57:03;;;;;;;104.38;44.78;;;;;;;6.00;100.00;100918.00;4896985;29;20572;-91
2022/09/30 07:59:31;;;;;;;113.07;46.78;;;;;;;6.20;100.00;100930.25;4894866;29;20064;-90
2022/09/30 08:01:56;;;;;;;113.72;46.17;;;;;;;6.26;100.00;100918.69;4897745;29;20077;-90
2022/09/30 08:04:24;;;;;;;109.70;45.53;;;;;;;6.31;100.00;100924.13;4896938;29;20044;-89
2022/09/30 08:06:59;;;;;;;105.20;44.90;;;;;;;6.32;100.00;100907.13;4915416;29;20028;-89
2022/09/30 08:09:26;;;;;;;108.53;44.30;;;;;;;6.41;100.00;100904.94;4895274;29;20059;-89
2022/09/30 08:11:52;;;;;;;102.85;43.63;;;;;;;6.57;100.00;100908.03;4912632;29;20009;-90
2022/09/30 08:14:22;;;;;;;100.32;43.13;;;;;;;6.55;100.00;100896.78;4896854;29;20037;-89
2022/09/30 08:16:50;;;;;;;94.67;41.93;;;;;;;6.89;100.00;100923.69;4873551;29;21117;-91
2022/09/30 08:19:21;;;;;;;103.33;42.80;;;;;;;6.91;100.00;100924.28;4886500;29;20304;-88
2022/09/30 08:21:47;;;;;;;90.35;43.50;;;;;;;6.92;100.00;100899.25;4874379;29;20025;-90
2022/09/30 08:24:13;;;;;;;83.40;39.65;;;;;;;7.12;100.00;100914.88;4894970;29;20045;-89
2022/09/30 08:26:40;;;;;;;78.97;38.17;;;;;;;7.30;100.00;100924.63;4897384;29;20040;-92
2022/09/30 08:29:10;;;;;;;75.15;36.13;;;;;;;7.43;100.00;100934.22;4892006;29;20500;-92
2022/09/30 08:31:36;;;;;;;70.40;33.97;;;;;;;7.40;100.00;100921.34;4884884;29;20036;-88
2022/09/30 08:34:02;;;;;;;65.03;32.72;;;;;;;7.50;100.00;100918.91;4881618;29;20024;-86
2022/09/30 08:36:30;;;;;;;61.97;32.23;;;;;;;7.56;100.00;100919.81;4881336;29;20068;-93
2022/09/30 08:38:56;;;;;;;65.85;32.97;;;;;;;7.47;100.00;100900.72;4896342;29;20060;-92
2022/09/30 08:41:43;;;;;;;57.78;31.33;;;;;;;7.78;100.00;100930.66;4897896;29;20059;-92
2022/09/30 08:44:33;;;;;;;56.13;30.88;;;;;;;7.88;100.00;100930.88;4875339;29;20050;-91
2022/09/30 08:47:13;;;;;;;55.10;29.45;;;;;;;7.95;100.00;100933.41;4883471;29;20033;-90
2022/09/30 08:50:02;;;;;;;55.05;29.65;;;;;;;8.07;100.00;100941.38;4926859;29;20048;-90
2022/09/30 08:52:39;;;;;;;51.40;27.95;;;;;;;8.11;100.00;100945.19;4908884;29;20327;-91
2022/09/30 08:55:06;;;;;;;49.65;27.52;;;;;;;8.12;100.00;100940.66;4911069;29;20040;-90
2022/09/30 08:57:37;;;;;;;46.25;24.77;;;;;;;8.32;100.00;100948.22;4891354;29;20040;-90
2022/09/30 09:00:10;;;;;;;44.33;24.37;;;;;;;8.28;100.00;100936.41;4901669;29;20047;-89
2022/09/30 09:02:54;;;;;;;42.50;23.37;;;;;;;8.40;100.00;100931.03;4905208;29;20325;-90
2022/09/30 09:05:41;;;;;;;43.25;24.20;;;;;;;8.74;100.00;100949.78;4913613;29;20036;-87
2022/09/30 09:08:18;;;;;;;42.95;22.20;;;;;;;8.74;100.00;100931.06;4913649;29;20041;-88
2022/09/30 09:11:12;;;;;;;34.22;20.35;;;;;;;8.87;100.00;100938.75;4893661;29;20067;-86
2022/09/30 09:13:54;;;;;;;38.85;20.05;;;;;;;8.95;100.00;100918.84;4890846;29;20048;-91
2022/09/30 09:16:27;;;;;;;31.17;17.83;;;;;;;9.11;100.00;100924.41;4909824;29;20033;-85
2022/09/30 09:18:59;;;;;;;27.58;16.35;;;;;;;9.12;100.00;100942.88;4889335;29;20044;-88
2022/09/30 09:21:46;;;;;;;35.25;17.33;;;;;;;9.25;100.00;100947.06;4904025;29;20056;-89
2022/09/30 09:24:32;;;;;;;31.02;16.38;;;;;;;9.34;100.00;100944.78;4899564;29;20394;-88
2022/09/30 09:26:58;;;;;;;30.90;17.20;;;;;;;9.38;100.00;100919.16;4880967;29;20024;-86
2022/09/30 09:29:37;;;;;;;33.07;18.23;;;;;;;9.56;100.00;100926.09;4892904;29;20361;-86
2022/09/30 09:32:11;;;;;;;27.30;16.05;;;;;;;9.87;100.00;100942.50;4895084;29;20059;-87
2022/09/30 09:34:37;;;;;;;24.23;14.23;;;;;;;9.99;100.00;100953.09;4887239;29;20398;-87
2022/09/30 09:38:23;;;;;;;22.35;13.23;;;;;;;10.01;100.00;100967.03;4891447;29;20412;-87
2022/09/30 09:40:57;;;;;;;23.40;13.70;;;;;;;10.02;100.00;100957.13;4876254;29;20052;-90
2022/09/30 09:43:33;;;;;;;24.50;14.20;;;;;;;9.99;100.00;100948.53;4876125;29;20033;-89
2022/09/30 09:46:01;;;;;;;25.25;14.55;;;;;;;10.15;100.00;100952.19;4893187;29;20041;-90
2022/09/30 09:48:28;;;;;;;25.55;14.55;;;;;;;10.11;100.00;100932.31;4897496;29;20079;-88
2022/09/30 09:51:03;;;;;;;21.15;13.35;;;;;;;10.31;100.00;100955.03;4898021;29;20033;-90
2022/09/30 09:53:31;;;;;;;21.75;13.00;;;;;;;10.41;100.00;100957.03;4886798;29;20032;-88
2022/09/30 09:55:58;;;;;;;21.88;13.57;;;;;;;10.54;100.00;100956.59;4880028;29;20097;-88
2022/09/30 09:58:24;;;;;;;22.48;12.52;;;;;;;10.54;100.00;100926.34;4860046;29;20477;-88
2022/09/30 10:03:25;;;;;;;18.13;11.50;;;;;;;10.90;100.00;100940.81;4906476;29;20036;-88
2022/09/30 10:06:02;;;;;;;15.75;9.77;;;;;;;10.85;100.00;100926.56;4897727;29;20028;-87
2022/09/30 10:08:30;;;;;;;18.88;10.20;;;;;;;10.99;100.00;100935.78;4899770;29;20033;-88
2022/09/30 10:10:58;;;;;;;14.50;9.65;;;;;;;11.17;100.00;100941.78;4899021;29;20028;-91
2022/09/30 10:13:28;;;;;;;13.63;9.10;;;;;;;11.04;100.00;100924.31;4902760;29;20035;-88
2022/09/30 10:15:59;;;;;;;16.00;9.90;;;;;;;10.84;100.00;100900.81;4896542;29;20025;-89
2022/09/30 10:18:42;;;;;;;15.57;10.13;;;;;;;11.06;100.00;100943.59;4897162;29;20032;-89
2022/09/30 10:22:03;;;;;;;;;;;;;;;;;;;;;
2022/09/30 10:24:42;;;;;;;12.30;8.93;;;;;;;11.17;100.00;100909.59;4895883;29;20044;-89
2022/09/30 10:27:29;;;;;;;10.98;8.20;;;;;;;11.39;100.00;100935.47;4895314;29;20396;-89
2022/09/30 10:29:54;;;;;;;10.63;7.43;;;;;;;11.38;100.00;100928.50;4897273;29;20043;-89
2022/09/30 10:32:22;;;;;;;10.07;7.30;;;;;;;11.49;100.00;100932.88;4897393;29;20021;-91
2022/09/30 10:34:55;;;;;;;10.32;7.72;;;;;;;11.63;100.00;100933.19;4895632;29;20033;-90
2022/09/30 10:37:22;;;;;;;11.80;7.47;;;;;;;11.65;100.00;100917.63;4880199;29;20028;-88
2022/09/30 10:40:15;;;;;;;9.93;6.72;;;;;;;12.06;100.00;100943.81;4898662;29;20028;-87
2022/09/30 10:42:48;;;;;;;10.43;6.97;;;;;;;12.25;100.00;100954.88;4888588;29;20036;-89
2022/09/30 10:45:37;;;;;;;9.30;7.32;;;;;;;12.45;99.91;100962.16;4901020;29;20045;-89
2022/09/30 10:48:17;;;;;;;9.55;6.90;;;;;;;12.54;100.00;100933.69;4896890;29;20069;-89
2022/09/30 10:50:50;;;;;;;10.13;7.07;;;;;;;12.69;100.00;100911.38;4902620;29;20028;-88
2022/09/30 10:53:37;;;;;;;7.95;6.32;;;;;;;13.02;97.69;100929.91;4894051;29;20039;-90
2022/09/30 10:56:04;;;;;;;8.07;5.53;;;;;;;13.39;96.79;100942.19;4895579;29;20033;-88
2022/09/30 10:58:53;;;;;;;8.70;5.70;;;;;;;13.83;99.63;100961.44;4896558;29;20563;-90
2022/09/30 11:01:23;;;;;;;8.25;4.88;;;;;;;14.01;93.72;100963.50;4891784;29;20052;-90
2022/09/30 11:04:13;;;;;;;7.22;4.35;;;;;;;13.95;88.61;100940.38;4903129;29;20044;-89
2022/09/30 11:06:39;;;;;;;4.82;4.43;;;;;;;14.07;87.80;100959.69;4897660;29;20093;-91
2022/09/30 11:09:05;;;;;;;4.13;3.50;;;;;;;14.00;87.44;100956.53;4897346;29;20029;-91
2022/09/30 11:11:39;;;;;;;4.60;3.60;;;;;;;13.92;90.07;100927.44;4896312;29;20583;-94
2022/09/30 11:14:26;;;;;;;4.50;3.60;;;;;;;14.32;86.69;100951.75;4894509;29;20058;-92
2022/09/30 11:17:45;;;;;;;5.53;3.30;;;;;;;14.70;90.23;100952.00;4897638;29;20442;-93
2022/09/30 11:20:17;;;;;;;3.38;2.53;;;;;;;14.76;82.80;100960.91;4898050;29;20549;-91
2022/09/30 11:23:02;;;;;;;3.05;2.38;;;;;;;14.37;84.12;100933.66;4897168;29;20041;-92
2022/09/30 11:26:00;;;;;;;5.35;2.60;;;;;;;14.21;86.80;100921.38;4897964;29;20029;-92
2022/09/30 11:28:47;;;;;;;2.53;1.80;;;;;;;14.37;84.45;100947.13;4857128;29;20036;-93
2022/09/30 11:31:31;;;;;;;5.80;2.23;;;;;;;14.45;84.25;100950.28;4896152;29;20300;-92
2022/09/30 11:34:21;;;;;;;2.00;1.70;;;;;;;14.76;85.13;100950.09;4902287;29;20040;-92
2022/09/30 11:37:01;;;;;;;2.00;1.80;;;;;;;15.02;79.73;100952.56;4916684;29;20040;-92
2022/09/30 11:39:50;;;;;;;2.97;1.65;;;;;;;15.09;82.84;100945.72;4895038;29;20025;-91